createdAt,value
2023-02-06T00:00:55.417Z,-2.70
2023-02-06T00:03:24.399Z,-2.80
2023-02-06T00:05:58.693Z,-2.90
2023-02-06T00:08:29.925Z,-2.70
2023-02-06T00:10:59.022Z,-2.80
2023-02-06T00:13:28.259Z,-2.80
2023-02-06T00:15:57.179Z,-2.70
2023-02-06T00:18:26.875Z,-2.70
2023-02-06T00:20:56.395Z,-2.70
2023-02-06T00:23:25.506Z,-2.90
2023-02-06T00:25:56.930Z,-2.80
2023-02-06T00:29:05.432Z,-2.80
2023-02-06T00:31:35.027Z,-2.90
2023-02-06T00:34:04.635Z,-2.80
2023-02-06T00:36:34.636Z,-2.80
2023-02-06T00:39:03.710Z,-2.80
2023-02-06T00:41:34.209Z,-2.80
2023-02-06T00:44:03.368Z,-2.70
2023-02-06T00:46:32.849Z,-2.70
2023-02-06T00:49:02.209Z,-2.80
2023-02-06T00:51:36.341Z,-3.10
2023-02-06T00:54:05.581Z,-3.00
2023-02-06T00:56:36.723Z,-2.90
2023-02-06T00:59:06.112Z,-3.00
2023-02-06T01:01:35.535Z,-3.20
2023-02-06T01:04:04.375Z,-3.10
2023-02-06T01:06:33.246Z,-3.00
2023-02-06T01:09:02.306Z,-3.00
2023-02-06T01:12:03.427Z,-3.00
2023-02-06T01:14:32.666Z,-3.00
2023-02-06T01:17:02.171Z,-3.00
2023-02-06T01:19:31.538Z,-3.00
2023-02-06T01:22:00.608Z,-3.00
2023-02-06T01:24:29.869Z,-3.00
2023-02-06T01:26:58.853Z,-2.90
2023-02-06T01:29:29.636Z,-2.80
2023-02-06T01:31:59.016Z,-2.90
2023-02-06T01:34:28.673Z,-3.00
2023-02-06T01:36:57.714Z,-3.30
2023-02-06T01:39:27.038Z,-3.30
2023-02-06T01:41:56.164Z,-3.10
2023-02-06T01:44:27.338Z,-3.10
2023-02-06T01:46:59.085Z,-3.10
2023-02-06T01:49:36.848Z,-3.10
2023-02-06T01:52:17.063Z,-3.20
2023-02-06T01:54:55.017Z,-3.10
2023-02-06T01:57:26.997Z,-3.10
2023-02-06T02:00:03.623Z,-3.00
2023-02-06T02:02:49.331Z,-3.00
2023-02-06T02:05:20.753Z,-3.20
2023-02-06T02:08:01.371Z,-3.10
2023-02-06T02:10:33.617Z,-3.10
2023-02-06T02:13:03.266Z,-3.20
2023-02-06T02:15:51.623Z,-3.30
2023-02-06T02:18:47.852Z,-3.10
2023-02-06T02:22:18.733Z,-3.20
2023-02-06T02:25:18.813Z,-3.10
2023-02-06T02:28:23.776Z,-3.10
2023-02-06T02:31:32.942Z,-3.10
2023-02-06T02:34:58.488Z,-3.00
2023-02-06T02:37:41.378Z,-3.00
2023-02-06T02:40:24.467Z,-3.10
2023-02-06T02:43:06.361Z,-3.30
2023-02-06T02:45:44.926Z,-3.30
2023-02-06T02:48:20.884Z,-3.20
2023-02-06T02:50:52.761Z,-3.20
2023-02-06T02:53:23.995Z,-3.20
2023-02-06T02:55:54.356Z,-3.30
2023-02-06T02:58:33.066Z,-3.30
2023-02-06T03:01:10.408Z,-3.30
2023-02-06T03:03:44.942Z,-3.20
2023-02-06T03:07:04.200Z,-3.20
2023-02-06T03:09:51.727Z,-3.20
2023-02-06T03:12:29.998Z,-3.10
2023-02-06T03:15:12.497Z,-3.10
2023-02-06T03:17:50.888Z,-3.40
2023-02-06T03:20:21.845Z,-3.40
2023-02-06T03:22:55.143Z,-3.50
2023-02-06T03:25:34.872Z,-3.30
2023-02-06T03:28:12.830Z,-3.20
2023-02-06T03:30:46.406Z,-3.30
2023-02-06T03:33:20.331Z,-3.30
2023-02-06T03:40:18.594Z,-3.20
2023-02-06T03:42:57.466Z,-3.20
2023-02-06T03:45:32.130Z,-3.40
2023-02-06T03:48:04.854Z,-3.20
2023-02-06T03:50:36.521Z,-3.20
2023-02-06T03:53:06.880Z,-3.40
2023-02-06T03:55:41.891Z,-3.30
2023-02-06T03:58:16.516Z,-3.30
2023-02-06T04:00:48.305Z,-3.20
2023-02-06T04:03:20.131Z,-3.20
2023-02-06T04:06:15.022Z,-3.20
2023-02-06T04:09:58.567Z,-3.20
2023-02-06T04:12:29.195Z,-3.30
2023-02-06T04:14:58.041Z,-3.30
2023-02-06T04:17:43.266Z,-3.20
2023-02-06T04:20:16.706Z,-3.20
2023-02-06T04:22:46.231Z,-3.10
2023-02-06T04:25:15.740Z,-3.10
2023-02-06T04:27:52.693Z,-3.10
2023-02-06T04:30:22.379Z,-3.10
2023-02-06T04:32:56.919Z,-3.10
2023-02-06T04:35:26.463Z,-3.10
2023-02-06T04:37:56.049Z,-3.20
2023-02-06T04:40:25.346Z,-3.10
2023-02-06T04:43:01.986Z,-3.10
2023-02-06T04:45:31.507Z,-3.20
2023-02-06T04:48:07.160Z,-3.10
2023-02-06T04:50:47.969Z,-3.10
2023-02-06T04:54:13.320Z,-3.20
2023-02-06T04:57:05.534Z,-3.20
2023-02-06T04:59:36.749Z,-3.10
2023-02-06T05:02:06.360Z,-3.10
2023-02-06T05:04:35.976Z,-3.00
2023-02-06T05:07:05.662Z,-3.00
2023-02-06T05:09:40.377Z,-3.00
2023-02-06T05:12:18.013Z,-3.10
2023-02-06T05:14:48.354Z,-3.10
2023-02-06T05:21:48.791Z,-3.10
2023-02-06T05:24:19.912Z,-3.00
2023-02-06T05:26:49.315Z,-2.90
2023-02-06T05:29:49.803Z,-2.90
2023-02-06T05:32:54.279Z,-2.90
2023-02-06T05:35:23.814Z,-2.90
2023-02-06T05:37:53.201Z,-2.90
2023-02-06T05:41:13.741Z,-2.90
2023-02-06T05:43:43.318Z,-2.80
2023-02-06T05:46:14.414Z,-2.70
2023-02-06T05:48:47.159Z,-2.70
2023-02-06T05:51:18.384Z,-2.60
2023-02-06T05:53:56.531Z,-2.70
2023-02-06T05:56:25.644Z,-2.70
2023-02-06T05:58:54.814Z,-2.60
2023-02-06T06:01:26.579Z,-2.60
2023-02-06T06:04:32.839Z,-2.60
2023-02-06T06:07:02.423Z,-2.60
2023-02-06T06:09:31.361Z,-2.50
2023-02-06T06:12:03.320Z,-2.50
2023-02-06T06:14:32.180Z,-2.50
2023-02-06T06:17:03.324Z,-2.50
2023-02-06T06:19:32.299Z,-2.40
2023-02-06T06:22:01.137Z,-2.40
2023-02-06T06:24:30.045Z,-2.40
2023-02-06T06:26:59.554Z,-2.40
2023-02-06T06:29:28.688Z,-2.40
2023-02-06T06:31:57.606Z,-2.30
2023-02-06T06:34:27.966Z,-2.30
2023-02-06T06:36:56.744Z,-2.30
2023-02-06T06:39:25.752Z,-2.30
2023-02-06T06:41:54.793Z,-2.30
2023-02-06T06:44:23.929Z,-2.20
2023-02-06T06:46:53.031Z,-2.20
2023-02-06T06:49:49.841Z,-2.20
2023-02-06T06:52:24.942Z,-2.20
2023-02-06T06:54:54.945Z,-2.20
2023-02-06T06:57:24.834Z,-2.10
2023-02-06T06:59:54.146Z,-2.10
2023-02-06T07:02:22.958Z,-2.10
2023-02-06T07:04:53.133Z,-2.10
2023-02-06T07:07:22.054Z,-2.00
2023-02-06T07:09:50.820Z,-2.00
2023-02-06T07:12:19.734Z,-2.00
2023-02-06T07:14:48.855Z,-2.00
2023-02-06T07:17:17.678Z,-1.90
2023-02-06T07:19:48.301Z,-1.90
2023-02-06T07:22:40.118Z,-1.90
2023-02-06T07:25:09.637Z,-1.90
2023-02-06T07:27:38.522Z,-1.80
2023-02-06T07:30:08.725Z,-1.80
2023-02-06T07:32:37.914Z,-1.80
2023-02-06T07:35:08.303Z,-1.80
2023-02-06T07:37:55.923Z,-1.80
2023-02-06T07:40:27.654Z,-1.80
2023-02-06T07:42:58.155Z,-1.70
2023-02-06T07:45:35.236Z,-1.70
2023-02-06T07:48:06.544Z,-1.60
2023-02-06T07:50:36.202Z,-1.60
2023-02-06T07:53:07.924Z,-1.60
2023-02-06T07:55:39.066Z,-1.60
2023-02-06T07:58:08.170Z,-1.60
2023-02-06T08:00:36.996Z,-1.50
2023-02-06T08:03:06.278Z,-1.50
2023-02-06T08:05:38.932Z,-1.50
2023-02-06T08:08:10.809Z,-1.50
2023-02-06T08:10:40.379Z,-1.40
2023-02-06T08:13:09.291Z,-1.40
2023-02-06T08:15:38.282Z,-1.30
2023-02-06T08:18:09.185Z,-1.30
2023-02-06T08:20:38.033Z,-1.30
2023-02-06T08:23:08.800Z,-1.30
2023-02-06T08:25:37.937Z,-1.20
2023-02-06T08:28:07.461Z,-1.20
2023-02-06T08:30:37.111Z,-1.20
2023-02-06T08:33:06.249Z,-1.20
2023-02-06T08:35:35.751Z,-1.20
2023-02-06T08:38:04.751Z,-1.10
2023-02-06T08:40:35.006Z,-1.10
2023-02-06T08:43:03.836Z,-1.10
2023-02-06T08:45:32.590Z,-1.10
2023-02-06T08:48:01.424Z,-1.00
2023-02-06T08:50:30.258Z,-1.00
2023-02-06T08:53:00.031Z,-0.90
2023-02-06T08:55:28.863Z,-0.90
2023-02-06T08:57:59.031Z,-0.90
2023-02-06T09:00:28.168Z,-0.90
2023-02-06T09:02:57.561Z,-0.80
2023-02-06T09:05:26.519Z,-0.80
2023-02-06T09:07:55.384Z,-0.80
2023-02-06T09:10:27.904Z,-0.80
2023-02-06T09:12:58.546Z,-0.80
2023-02-06T09:15:27.509Z,-0.80
2023-02-06T09:17:56.427Z,-0.70
2023-02-06T09:20:26.670Z,-0.70
2023-02-06T09:22:55.537Z,-0.70
2023-02-06T09:25:24.309Z,-0.70
2023-02-06T09:27:53.237Z,-0.70
2023-02-06T09:30:23.742Z,-0.60
2023-02-06T09:32:52.699Z,-0.60
2023-02-06T09:35:21.432Z,-0.50
2023-02-06T09:37:50.233Z,-0.50
2023-02-06T09:40:27.056Z,-0.50
2023-02-06T09:42:57.593Z,-0.50
2023-02-06T09:45:31.289Z,-0.40
2023-02-06T09:48:16.223Z,-0.40
2023-02-06T09:50:58.127Z,-0.40
2023-02-06T09:53:41.811Z,-0.40
2023-02-06T09:56:22.882Z,-0.40
2023-02-06T09:59:02.885Z,-0.30
2023-02-06T10:01:43.208Z,-0.30
2023-02-06T10:04:47.797Z,-0.30
2023-02-06T10:07:38.814Z,-0.20
2023-02-06T10:10:16.791Z,-0.20
2023-02-06T10:12:55.517Z,-0.20
2023-02-06T10:18:32.203Z,-0.20
2023-02-06T10:21:06.625Z,-0.10
2023-02-06T10:23:47.474Z,-0.10
2023-02-06T10:26:19.080Z,-0.10
2023-02-06T10:28:52.531Z,0.00
2023-02-06T10:31:55.899Z,0.00
2023-02-06T10:34:56.333Z,0.00
2023-02-06T10:37:50.239Z,0.10
2023-02-06T10:40:36.635Z,0.10
2023-02-06T10:43:21.091Z,0.10
2023-02-06T10:46:04.119Z,0.10
2023-02-06T10:48:42.420Z,0.20
2023-02-06T10:51:20.951Z,0.20
2023-02-06T10:53:54.986Z,0.20
2023-02-06T10:56:29.935Z,0.30
2023-02-06T10:59:03.282Z,0.30
2023-02-06T11:01:38.632Z,0.30
2023-02-06T11:04:16.883Z,0.30
2023-02-06T11:06:47.617Z,0.30
2023-02-06T11:09:17.217Z,0.40
2023-02-06T11:11:48.874Z,0.40
2023-02-06T11:14:28.469Z,0.40
2023-02-06T11:17:01.599Z,0.40
2023-02-06T11:19:40.516Z,0.40
2023-02-06T11:22:26.946Z,0.40
2023-02-06T11:25:06.192Z,0.50
2023-02-06T11:27:37.397Z,0.50
2023-02-06T11:30:26.349Z,0.50
2023-02-06T11:33:04.646Z,0.50
2023-02-06T11:35:39.373Z,0.60
2023-02-06T11:38:25.279Z,0.70
2023-02-06T11:41:04.849Z,0.70
2023-02-06T11:43:47.669Z,0.70
2023-02-06T11:46:40.537Z,0.70
2023-02-06T11:49:29.581Z,0.70
2023-02-06T11:52:06.190Z,0.60
2023-02-06T11:54:56.648Z,0.50
2023-02-06T11:57:47.297Z,0.50
2023-02-06T12:00:25.950Z,0.50
2023-02-06T12:03:03.757Z,0.50
2023-02-06T12:05:43.647Z,0.50
2023-02-06T12:09:49.098Z,0.40
2023-02-06T12:13:07.489Z,0.40
2023-02-06T12:19:51.062Z,0.60
2023-02-06T12:22:24.834Z,0.60
2023-02-06T12:24:56.773Z,0.70
2023-02-06T12:27:39.263Z,0.80
2023-02-06T12:30:38.304Z,0.90
2023-02-06T12:33:17.355Z,0.90
2023-02-06T12:36:17.548Z,0.80
2023-02-06T12:38:54.788Z,0.90
2023-02-06T12:41:59.580Z,0.90
2023-02-06T12:44:35.213Z,0.90
2023-02-06T12:47:24.361Z,1.10
2023-02-06T12:50:01.915Z,1.10
2023-02-06T12:52:41.706Z,1.10
2023-02-06T12:55:23.110Z,1.00
2023-02-06T12:57:57.841Z,1.00
2023-02-06T13:01:20.830Z,0.90
2023-02-06T13:03:59.355Z,0.90
2023-02-06T13:06:35.157Z,1.00
2023-02-06T13:09:09.328Z,0.90
2023-02-06T13:11:42.753Z,0.80
2023-02-06T13:14:22.794Z,0.60
2023-02-06T13:17:00.912Z,0.80
2023-02-06T13:19:54.843Z,0.80
2023-02-06T13:22:43.671Z,0.70
2023-02-06T13:26:10.651Z,0.80
2023-02-06T13:29:01.510Z,0.80
2023-02-06T13:32:28.867Z,0.70
2023-02-06T13:35:15.568Z,0.80
2023-02-06T13:37:48.511Z,1.00
2023-02-06T13:40:32.303Z,1.00
2023-02-06T13:43:10.508Z,1.20
2023-02-06T13:46:12.306Z,1.20
2023-02-06T13:49:30.041Z,1.10
2023-02-06T13:52:16.408Z,1.10
2023-02-06T13:55:06.014Z,1.10
2023-02-06T13:58:05.106Z,1.10
2023-02-06T14:00:44.397Z,1.00
2023-02-06T14:03:23.162Z,1.10
2023-02-06T14:06:04.048Z,1.10
2023-02-06T14:08:49.620Z,1.20
2023-02-06T14:12:31.773Z,1.30
2023-02-06T14:15:29.328Z,1.20
2023-02-06T14:18:41.785Z,1.10
2023-02-06T14:21:28.503Z,1.20
2023-02-06T14:24:51.040Z,1.20
2023-02-06T14:27:55.062Z,1.20
2023-02-06T14:30:44.221Z,1.20
2023-02-06T14:33:42.873Z,1.20
2023-02-06T14:36:44.714Z,1.20
2023-02-06T14:39:41.203Z,1.30
2023-02-06T14:42:39.720Z,1.20
2023-02-06T14:45:35.964Z,1.20
2023-02-06T14:48:07.933Z,1.30
2023-02-06T14:50:42.282Z,1.30
2023-02-06T14:53:21.207Z,1.30
2023-02-06T14:55:50.516Z,1.30
2023-02-06T14:58:26.525Z,1.30
2023-02-06T15:01:14.148Z,1.20
2023-02-06T15:03:43.398Z,1.20
2023-02-06T15:06:26.944Z,1.10
2023-02-06T15:08:56.861Z,1.10
2023-02-06T15:11:32.631Z,1.10
2023-02-06T15:14:05.310Z,1.10
2023-02-06T15:16:47.948Z,1.00
2023-02-06T15:19:21.411Z,1.00
2023-02-06T15:22:02.294Z,1.00
2023-02-06T15:25:51.850Z,1.00
2023-02-06T15:28:27.639Z,1.00
2023-02-06T15:31:01.833Z,1.00
2023-02-06T15:33:34.216Z,1.00
2023-02-06T15:36:05.390Z,1.00
2023-02-06T15:38:37.479Z,0.90
2023-02-06T15:41:09.770Z,0.80
2023-02-06T15:43:39.051Z,0.80
2023-02-06T15:46:09.457Z,0.70
2023-02-06T15:48:43.833Z,0.70
2023-02-06T15:51:24.329Z,0.70
2023-02-06T15:54:09.800Z,0.70
2023-02-06T15:56:44.708Z,0.70
2023-02-06T15:59:24.214Z,0.60
2023-02-06T16:01:55.572Z,0.60
2023-02-06T16:04:30.515Z,0.50
2023-02-06T16:07:08.412Z,0.50
2023-02-06T16:09:51.128Z,0.40
2023-02-06T16:12:21.413Z,0.40
2023-02-06T16:14:58.378Z,0.30
2023-02-06T16:17:34.792Z,0.20
2023-02-06T16:20:08.464Z,0.10
2023-02-06T16:22:40.321Z,0.20
2023-02-06T16:25:25.862Z,0.10
2023-02-06T16:27:58.275Z,0.20
2023-02-06T16:30:31.320Z,0.10
2023-02-06T16:33:10.673Z,0.10
2023-02-06T16:35:40.475Z,-0.10
2023-02-06T16:38:12.663Z,-0.10
2023-02-06T16:40:43.214Z,-0.30
2023-02-06T16:43:13.506Z,-0.40
2023-02-06T16:45:42.635Z,-0.50
2023-02-06T16:48:15.148Z,-0.50
2023-02-06T16:50:45.319Z,-0.60
2023-02-06T16:53:21.496Z,-0.50
2023-02-06T16:55:56.173Z,-0.50
2023-02-06T16:58:30.313Z,-0.50
2023-02-06T17:00:59.812Z,-0.70
2023-02-06T17:03:32.572Z,-0.80
2023-02-06T17:06:02.015Z,-0.90
2023-02-06T17:08:39.535Z,-0.90
2023-02-06T17:11:11.406Z,-0.80
2023-02-06T17:13:41.632Z,-1.00
2023-02-06T17:16:17.634Z,-0.90
2023-02-06T17:18:47.558Z,-0.90
2023-02-06T17:21:19.394Z,-1.20
2023-02-06T17:23:49.265Z,-1.20
2023-02-06T17:26:22.609Z,-1.20
2023-02-06T17:28:53.069Z,-1.10
2023-02-06T17:31:23.448Z,-1.10
2023-02-06T17:33:52.373Z,-1.10
2023-02-06T17:36:29.552Z,-1.10
2023-02-06T17:38:59.246Z,-1.20
2023-02-06T17:41:31.383Z,-1.40
2023-02-06T17:44:01.205Z,-1.50
2023-02-06T17:46:31.269Z,-1.50
2023-02-06T17:49:14.679Z,-1.40
2023-02-06T17:51:48.837Z,-1.70
2023-02-06T17:54:22.239Z,-1.50
2023-02-06T17:57:20.582Z,-1.50
2023-02-06T17:59:55.569Z,-1.50
2023-02-06T18:02:25.851Z,-1.60
2023-02-06T18:04:55.654Z,-1.70
2023-02-06T18:07:25.539Z,-1.60
2023-02-06T18:09:54.750Z,-1.80
2023-02-06T18:12:25.083Z,-1.70
2023-02-06T18:14:54.003Z,-1.90
2023-02-06T18:17:38.864Z,-2.10
2023-02-06T18:20:20.695Z,-2.10
2023-02-06T18:22:55.685Z,-2.10
2023-02-06T18:25:26.009Z,-2.10
2023-02-06T18:28:07.750Z,-2.00
2023-02-06T18:30:37.642Z,-2.00
2023-02-06T18:33:06.877Z,-2.00
2023-02-06T18:35:39.585Z,-2.00
2023-02-06T18:38:10.186Z,-2.10
2023-02-06T18:40:39.960Z,-2.30
2023-02-06T18:43:09.475Z,-2.20
2023-02-06T18:45:40.571Z,-2.10
2023-02-06T18:48:12.785Z,-2.10
2023-02-06T18:50:47.726Z,-2.10
2023-02-06T18:53:18.526Z,-2.50
2023-02-06T18:56:00.805Z,-2.40
2023-02-06T18:58:31.438Z,-2.30
2023-02-06T19:01:00.576Z,-2.30
2023-02-06T19:03:29.586Z,-2.30
2023-02-06T19:05:58.501Z,-2.60
2023-02-06T19:08:28.753Z,-2.70
2023-02-06T19:10:58.928Z,-2.70
2023-02-06T19:13:28.008Z,-2.50
2023-02-06T19:16:07.479Z,-2.50
2023-02-06T19:18:41.609Z,-2.50
2023-02-06T19:21:15.794Z,-2.50
2023-02-06T19:23:46.211Z,-2.60
2023-02-06T19:26:17.878Z,-2.70
2023-02-06T19:28:47.036Z,-2.90
2023-02-06T19:31:23.761Z,-2.80
2023-02-06T19:33:55.362Z,-2.90
2023-02-06T19:36:26.070Z,-2.80
2023-02-06T19:38:59.732Z,-2.80
2023-02-06T19:41:34.172Z,-2.90
2023-02-06T19:44:10.995Z,-2.80
2023-02-06T19:46:41.691Z,-2.90
2023-02-06T19:49:12.661Z,-3.20
2023-02-06T19:51:44.846Z,-3.10
2023-02-06T19:54:14.338Z,-3.00
2023-02-06T19:56:47.194Z,-3.00
2023-02-06T19:59:22.984Z,-3.10
2023-02-06T20:01:58.135Z,-3.10
2023-02-06T20:04:32.387Z,-2.90
2023-02-06T20:07:02.911Z,-3.00
2023-02-06T20:09:32.665Z,-3.20
2023-02-06T20:12:02.401Z,-3.20
2023-02-06T20:14:32.591Z,-3.20
2023-02-06T20:17:10.883Z,-3.10
2023-02-06T20:19:40.745Z,-3.10
2023-02-06T20:22:10.828Z,-3.10
2023-02-06T20:24:41.461Z,-3.10
2023-02-06T20:27:14.171Z,-3.00
2023-02-06T20:29:46.063Z,-3.20
2023-02-06T20:32:19.687Z,-3.50
2023-02-06T20:34:49.282Z,-3.50
2023-02-06T20:37:19.288Z,-3.40
2023-02-06T20:39:49.408Z,-3.30
2023-02-06T20:42:19.634Z,-3.30
2023-02-06T20:44:49.553Z,-3.20
2023-02-06T20:47:20.033Z,-3.30
2023-02-06T20:49:53.010Z,-3.50
2023-02-06T20:52:22.436Z,-3.40
2023-02-06T20:54:51.245Z,-3.60
2023-02-06T20:57:22.433Z,-3.40
2023-02-06T20:59:51.139Z,-3.70
2023-02-06T21:02:28.378Z,-3.50
2023-02-06T21:04:57.404Z,-3.40
2023-02-06T21:07:26.768Z,-3.50
2023-02-06T21:09:56.521Z,-3.80
2023-02-06T21:12:25.271Z,-3.80
2023-02-06T21:14:53.994Z,-4.00
2023-02-06T21:17:24.659Z,-3.90
2023-02-06T21:19:59.480Z,-3.70
2023-02-06T21:22:28.200Z,-3.70
2023-02-06T21:24:56.932Z,-3.90
2023-02-06T21:27:25.649Z,-4.10
2023-02-06T21:29:54.476Z,-4.10
2023-02-06T21:32:24.619Z,-3.80
2023-02-06T21:34:53.355Z,-4.10
2023-02-06T21:37:22.646Z,-4.20
2023-02-06T21:39:51.503Z,-4.20
2023-02-06T21:42:26.238Z,-4.20
2023-02-06T21:44:55.016Z,-4.30
2023-02-06T21:47:25.081Z,-4.40
2023-02-06T21:49:53.775Z,-4.10
2023-02-06T21:52:22.601Z,-4.10
2023-02-06T21:54:51.377Z,-4.00
2023-02-06T21:57:20.154Z,-4.30
2023-02-06T21:59:48.821Z,-4.50
2023-02-06T22:02:17.526Z,-4.40
2023-02-06T22:04:47.805Z,-4.50
2023-02-06T22:07:16.862Z,-4.50
2023-02-06T22:09:45.783Z,-4.60
2023-02-06T22:12:14.490Z,-4.60
2023-02-06T22:14:43.203Z,-4.70
2023-02-06T22:17:12.108Z,-4.70
2023-02-06T22:19:40.937Z,-4.60
2023-02-06T22:22:12.609Z,-4.50
2023-02-06T22:24:41.540Z,-4.40
2023-02-06T22:27:10.239Z,-4.40
2023-02-06T22:29:39.113Z,-4.70
2023-02-06T22:32:07.787Z,-4.60
2023-02-06T22:34:36.537Z,-4.70
2023-02-06T22:37:05.337Z,-4.50
2023-02-06T22:39:35.951Z,-4.40
2023-02-06T22:42:04.979Z,-4.40
2023-02-06T22:44:33.699Z,-4.60
2023-02-06T22:47:02.457Z,-4.60
2023-02-06T22:49:31.328Z,-4.60
2023-02-06T22:52:00.047Z,-4.60
2023-02-06T22:54:28.867Z,-4.80
2023-02-06T22:56:58.934Z,-4.90
2023-02-06T22:59:27.919Z,-4.90
2023-02-06T23:01:59.944Z,-4.80
2023-02-06T23:04:34.677Z,-4.70
2023-02-06T23:07:03.570Z,-4.80
2023-02-06T23:09:35.705Z,-4.70
2023-02-06T23:12:09.670Z,-4.70
2023-02-06T23:14:38.637Z,-4.70
2023-02-06T23:17:07.418Z,-4.60
2023-02-06T23:19:36.202Z,-4.80
2023-02-06T23:22:08.014Z,-4.80
2023-02-06T23:24:36.800Z,-4.60
2023-02-06T23:27:06.938Z,-4.80
2023-02-06T23:29:35.685Z,-4.90
2023-02-06T23:32:04.444Z,-4.90
2023-02-06T23:34:33.161Z,-4.90
2023-02-06T23:37:01.860Z,-5.00
2023-02-06T23:39:31.261Z,-4.90
2023-02-06T23:42:00.114Z,-5.10
2023-02-06T23:44:30.212Z,-5.00
2023-02-06T23:46:59.075Z,-5.10
2023-02-06T23:49:27.791Z,-5.00
2023-02-06T23:51:56.463Z,-4.90
2023-02-06T23:54:25.145Z,-5.20
2023-02-06T23:56:55.093Z,-5.10
2023-02-06T23:59:23.806Z,-5.00
